Logan, Illinois
Current Conditions -  °F | °C
As of 1:47 PM on Thursday 30 Oct 2014 (Local Time) from KMWA Reporting Station
Broken Clouds Broken Clouds  
Wind Chill: 61°   Ceiling: 10000
Heat Index: 61°   Visibility: 20mi
Dew Point: 39°   Wind: 7mph
Humidity: 45%   Direction: 200°SSW
Pressure: 30.09"   Gusts: NA
Location:  37.96°N, 88.84°W
Report Text: KMWA 301847Z 20006KT 20SM BKN100 16/04 A3009
Loading
Personal Weather Stations






























Interactive Weather Map New forecast layout! Learn more

10-Day Weather Forecast

Advertisements
Track Severe Weather on mobile